sensor_id;sensor_type;location;lat;lon;timestamp;pressure;altitude;pressure_sealevel;temperature;humidity
24031;BME280;12240;51.142;22.486;2023-08-31T00:00:02;62174.59;;;-142.46;100.00
24031;BME280;12240;51.142;22.486;2023-08-31T00:02:33;62174.59;;;-142.46;100.00
24031;BME280;12240;51.142;22.486;2023-08-31T00:05:02;62174.59;;;-142.46;100.00
24031;BME280;12240;51.142;22.486;2023-08-31T00:07:31;62174.59;;;-142.46;100.00
24031;BME280;12240;51.142;22.486;2023-08-31T00:10:00;62174.59;;;-142.46;100.00
24031;BME280;12240;51.142;22.486;2023-08-31T00:12:28;62174.59;;;-142.46;100.00
24031;BME280;12240;51.142;22.486;2023-08-31T00:14:56;62174.59;;;-142.46;100.00
24031;BME280;12240;51.142;22.486;2023-08-31T00:17:24;62174.59;;;-142.46;100.00
24031;BME280;12240;51.142;22.486;2023-08-31T00:19:53;62174.59;;;-142.46;100.00
24031;BME280;12240;51.142;22.486;2023-08-31T00:22:23;62174.59;;;-142.46;100.00
24031;BME280;12240;51.142;22.486;2023-08-31T00:24:52;62174.59;;;-142.46;100.00
24031;BME280;12240;51.142;22.486;2023-08-31T00:27:20;62174.59;;;-142.46;100.00
24031;BME280;12240;51.142;22.486;2023-08-31T00:29:49;62174.59;;;-142.46;100.00
24031;BME280;12240;51.142;22.486;2023-08-31T00:32:18;62174.59;;;-142.46;100.00
24031;BME280;12240;51.142;22.486;2023-08-31T00:34:47;62174.59;;;-142.46;100.00
24031;BME280;12240;51.142;22.486;2023-08-31T00:37:15;62174.59;;;-142.46;100.00
24031;BME280;12240;51.142;22.486;2023-08-31T00:39:44;62174.59;;;-142.46;100.00
24031;BME280;12240;51.142;22.486;2023-08-31T00:42:13;62174.59;;;-142.46;100.00
24031;BME280;12240;51.142;22.486;2023-08-31T00:44:42;62174.59;;;-142.46;100.00
24031;BME280;12240;51.142;22.486;2023-08-31T00:47:10;62174.59;;;-142.46;100.00
24031;BME280;12240;51.142;22.486;2023-08-31T00:49:40;62174.59;;;-142.46;100.00
24031;BME280;12240;51.142;22.486;2023-08-31T00:52:09;62174.59;;;-142.46;100.00
24031;BME280;12240;51.142;22.486;2023-08-31T00:54:37;62174.59;;;-142.46;100.00
24031;BME280;12240;51.142;22.486;2023-08-31T00:57:06;62174.59;;;-142.46;100.00
24031;BME280;12240;51.142;22.486;2023-08-31T00:59:34;62174.59;;;-142.46;100.00
24031;BME280;12240;51.142;22.486;2023-08-31T01:02:34;62174.59;;;-142.46;100.00
24031;BME280;12240;51.142;22.486;2023-08-31T01:05:37;62174.59;;;-142.46;100.00
24031;BME280;12240;51.142;22.486;2023-08-31T01:12:05;62174.59;;;-142.46;100.00
24031;BME280;12240;51.142;22.486;2023-08-31T01:14:56;62174.59;;;-142.46;100.00
24031;BME280;12240;51.142;22.486;2023-08-31T01:17:31;62174.59;;;-142.46;100.00
24031;BME280;12240;51.142;22.486;2023-08-31T01:20:00;62174.59;;;-142.46;100.00
24031;BME280;12240;51.142;22.486;2023-08-31T01:22:43;62174.59;;;-142.46;100.00
24031;BME280;12240;51.142;22.486;2023-08-31T01:25:16;62174.59;;;-142.46;100.00
24031;BME280;12240;51.142;22.486;2023-08-31T01:27:44;62174.59;;;-142.46;100.00
24031;BME280;12240;51.142;22.486;2023-08-31T01:30:12;62174.59;;;-142.46;100.00
24031;BME280;12240;51.142;22.486;2023-08-31T01:32:45;62174.59;;;-142.46;100.00
24031;BME280;12240;51.142;22.486;2023-08-31T01:35:17;62174.59;;;-142.46;100.00
24031;BME280;12240;51.142;22.486;2023-08-31T01:37:53;62174.59;;;-142.46;100.00
24031;BME280;12240;51.142;22.486;2023-08-31T01:43:11;62174.59;;;-142.46;100.00
24031;BME280;12240;51.142;22.486;2023-08-31T01:45:40;62174.59;;;-142.46;100.00
24031;BME280;12240;51.142;22.486;2023-08-31T01:48:14;62174.59;;;-142.46;100.00
24031;BME280;12240;51.142;22.486;2023-08-31T01:50:43;62174.59;;;-142.46;100.00
24031;BME280;12240;51.142;22.486;2023-08-31T01:53:14;62174.59;;;-142.46;100.00
24031;BME280;12240;51.142;22.486;2023-08-31T01:55:44;62174.59;;;-142.46;100.00
24031;BME280;12240;51.142;22.486;2023-08-31T01:58:12;62174.59;;;-142.46;100.00
24031;BME280;12240;51.142;22.486;2023-08-31T02:00:41;62174.59;;;-142.46;100.00
24031;BME280;12240;51.142;22.486;2023-08-31T02:03:09;62174.59;;;-142.46;100.00
24031;BME280;12240;51.142;22.486;2023-08-31T02:05:42;62174.59;;;-142.46;100.00
24031;BME280;12240;51.142;22.486;2023-08-31T02:08:10;62174.59;;;-142.46;100.00
24031;BME280;12240;51.142;22.486;2023-08-31T02:10:38;62174.59;;;-142.46;100.00
24031;BME280;12240;51.142;22.486;2023-08-31T02:13:08;62174.59;;;-142.46;100.00
24031;BME280;12240;51.142;22.486;2023-08-31T02:15:38;62174.59;;;-142.46;100.00
24031;BME280;12240;51.142;22.486;2023-08-31T02:18:08;62174.59;;;-142.46;100.00
24031;BME280;12240;51.142;22.486;2023-08-31T02:20:36;62174.59;;;-142.46;100.00
24031;BME280;12240;51.142;22.486;2023-08-31T02:23:05;62174.59;;;-142.46;100.00
24031;BME280;12240;51.142;22.486;2023-08-31T02:25:34;62174.59;;;-142.46;100.00
24031;BME280;12240;51.142;22.486;2023-08-31T02:28:02;62174.59;;;-142.46;100.00
24031;BME280;12240;51.142;22.486;2023-08-31T02:30:31;62174.59;;;-142.46;100.00
24031;BME280;12240;51.142;22.486;2023-08-31T02:32:59;62174.59;;;-142.46;100.00
24031;BME280;12240;51.142;22.486;2023-08-31T02:35:29;62174.59;;;-142.46;100.00
24031;BME280;12240;51.142;22.486;2023-08-31T02:37:57;62174.59;;;-142.46;100.00
24031;BME280;12240;51.142;22.486;2023-08-31T02:40:26;62174.59;;;-142.46;100.00
24031;BME280;12240;51.142;22.486;2023-08-31T02:42:55;62174.59;;;-142.46;100.00
24031;BME280;12240;51.142;22.486;2023-08-31T02:45:24;62174.59;;;-142.46;100.00
24031;BME280;12240;51.142;22.486;2023-08-31T02:47:52;62174.59;;;-142.46;100.00
24031;BME280;12240;51.142;22.486;2023-08-31T02:50:21;62174.59;;;-142.46;100.00
24031;BME280;12240;51.142;22.486;2023-08-31T02:52:49;62174.59;;;-142.46;100.00
24031;BME280;12240;51.142;22.486;2023-08-31T02:55:18;62174.59;;;-142.46;100.00
24031;BME280;12240;51.142;22.486;2023-08-31T02:57:46;62174.59;;;-142.46;100.00
24031;BME280;12240;51.142;22.486;2023-08-31T03:00:15;62174.59;;;-142.46;100.00
24031;BME280;12240;51.142;22.486;2023-08-31T03:02:44;62174.59;;;-142.46;100.00
24031;BME280;12240;51.142;22.486;2023-08-31T03:05:13;62174.59;;;-142.46;100.00
24031;BME280;12240;51.142;22.486;2023-08-31T03:07:42;62174.59;;;-142.46;100.00
24031;BME280;12240;51.142;22.486;2023-08-31T03:10:12;62174.59;;;-142.46;100.00
24031;BME280;12240;51.142;22.486;2023-08-31T03:12:41;62174.59;;;-142.46;100.00
24031;BME280;12240;51.142;22.486;2023-08-31T03:15:09;62174.59;;;-142.46;100.00
24031;BME280;12240;51.142;22.486;2023-08-31T03:17:38;62174.59;;;-142.46;100.00
24031;BME280;12240;51.142;22.486;2023-08-31T03:20:09;62174.59;;;-142.46;100.00
24031;BME280;12240;51.142;22.486;2023-08-31T03:22:38;62174.59;;;-142.46;100.00
24031;BME280;12240;51.142;22.486;2023-08-31T03:25:07;62174.59;;;-142.46;100.00
24031;BME280;12240;51.142;22.486;2023-08-31T03:27:35;62174.59;;;-142.46;100.00
24031;BME280;12240;51.142;22.486;2023-08-31T03:30:04;62174.59;;;-142.46;100.00
24031;BME280;12240;51.142;22.486;2023-08-31T03:32:33;62174.59;;;-142.46;100.00
24031;BME280;12240;51.142;22.486;2023-08-31T03:35:02;62174.59;;;-142.46;100.00
24031;BME280;12240;51.142;22.486;2023-08-31T03:37:33;62174.59;;;-142.46;100.00
24031;BME280;12240;51.142;22.486;2023-08-31T03:40:02;62174.59;;;-142.46;100.00
24031;BME280;12240;51.142;22.486;2023-08-31T03:42:34;62174.59;;;-142.46;100.00
24031;BME280;12240;51.142;22.486;2023-08-31T03:45:04;62174.59;;;-142.46;100.00
24031;BME280;12240;51.142;22.486;2023-08-31T03:47:32;62174.59;;;-142.46;100.00
24031;BME280;12240;51.142;22.486;2023-08-31T03:50:01;62174.59;;;-142.46;100.00
24031;BME280;12240;51.142;22.486;2023-08-31T03:52:29;62174.59;;;-142.46;100.00
24031;BME280;12240;51.142;22.486;2023-08-31T03:54:58;62174.59;;;-142.46;100.00
24031;BME280;12240;51.142;22.486;2023-08-31T03:57:27;62174.59;;;-142.46;100.00
24031;BME280;12240;51.142;22.486;2023-08-31T04:00:01;62174.59;;;-142.46;100.00
24031;BME280;12240;51.142;22.486;2023-08-31T04:02:42;62174.59;;;-142.46;100.00
24031;BME280;12240;51.142;22.486;2023-08-31T04:05:16;62174.59;;;-142.46;100.00
24031;BME280;12240;51.142;22.486;2023-08-31T04:07:44;62174.59;;;-142.46;100.00
24031;BME280;12240;51.142;22.486;2023-08-31T04:10:12;62174.59;;;-142.46;100.00
24031;BME280;12240;51.142;22.486;2023-08-31T04:12:40;62174.59;;;-142.46;100.00
24031;BME280;12240;51.142;22.486;2023-08-31T04:15:10;62174.59;;;-142.46;100.00
24031;BME280;12240;51.142;22.486;2023-08-31T04:17:39;62174.59;;;-142.46;100.00
24031;BME280;12240;51.142;22.486;2023-08-31T04:20:08;62174.59;;;-142.46;100.00
24031;BME280;12240;51.142;22.486;2023-08-31T04:22:36;62174.59;;;-142.46;100.00
24031;BME280;12240;51.142;22.486;2023-08-31T04:25:05;62174.59;;;-142.46;100.00
24031;BME280;12240;51.142;22.486;2023-08-31T04:27:33;62174.59;;;-142.46;100.00
24031;BME280;12240;51.142;22.486;2023-08-31T04:30:03;62174.59;;;-142.46;100.00
24031;BME280;12240;51.142;22.486;2023-08-31T04:32:31;62174.59;;;-142.46;100.00
24031;BME280;12240;51.142;22.486;2023-08-31T04:34:59;62174.59;;;-142.46;100.00
24031;BME280;12240;51.142;22.486;2023-08-31T04:37:28;62174.59;;;-142.46;100.00
24031;BME280;12240;51.142;22.486;2023-08-31T04:39:57;62174.59;;;-142.46;100.00
24031;BME280;12240;51.142;22.486;2023-08-31T04:42:26;62174.59;;;-142.46;100.00
24031;BME280;12240;51.142;22.486;2023-08-31T04:44:54;62174.59;;;-142.46;100.00
24031;BME280;12240;51.142;22.486;2023-08-31T04:47:22;62174.59;;;-142.46;100.00
24031;BME280;12240;51.142;22.486;2023-08-31T04:49:50;62174.59;;;-142.46;100.00
24031;BME280;12240;51.142;22.486;2023-08-31T04:52:19;62174.59;;;-142.46;100.00
24031;BME280;12240;51.142;22.486;2023-08-31T04:54:47;62174.59;;;-142.46;100.00
24031;BME280;12240;51.142;22.486;2023-08-31T04:57:15;62174.59;;;-142.46;100.00
24031;BME280;12240;51.142;22.486;2023-08-31T04:59:44;62174.59;;;-142.46;100.00
24031;BME280;12240;51.142;22.486;2023-08-31T05:02:12;62174.59;;;-142.46;100.00
24031;BME280;12240;51.142;22.486;2023-08-31T05:04:41;62174.59;;;-142.46;100.00
24031;BME280;12240;51.142;22.486;2023-08-31T05:07:09;62174.59;;;-142.46;100.00
24031;BME280;12240;51.142;22.486;2023-08-31T05:09:37;62174.59;;;-142.46;100.00
24031;BME280;12240;51.142;22.486;2023-08-31T05:12:06;62174.59;;;-142.46;100.00
24031;BME280;12240;51.142;22.486;2023-08-31T05:14:38;62174.59;;;-142.46;100.00
24031;BME280;12240;51.142;22.486;2023-08-31T05:17:13;62174.59;;;-142.46;100.00
24031;BME280;12240;51.142;22.486;2023-08-31T05:19:58;62174.59;;;-142.46;100.00
24031;BME280;12240;51.142;22.486;2023-08-31T05:22:26;62174.59;;;-142.46;100.00
24031;BME280;12240;51.142;22.486;2023-08-31T05:24:55;62174.59;;;-142.46;100.00
24031;BME280;12240;51.142;22.486;2023-08-31T05:27:24;62174.59;;;-142.46;100.00
24031;BME280;12240;51.142;22.486;2023-08-31T05:29:52;62174.59;;;-142.46;100.00
24031;BME280;12240;51.142;22.486;2023-08-31T05:32:20;62174.59;;;-142.46;100.00
24031;BME280;12240;51.142;22.486;2023-08-31T05:34:49;62174.59;;;-142.46;100.00
24031;BME280;12240;51.142;22.486;2023-08-31T05:37:17;62174.59;;;-142.46;100.00
24031;BME280;12240;51.142;22.486;2023-08-31T05:39:49;62174.59;;;-142.46;100.00
24031;BME280;12240;51.142;22.486;2023-08-31T05:42:18;62174.59;;;-142.46;100.00
24031;BME280;12240;51.142;22.486;2023-08-31T05:44:46;62174.59;;;-142.46;100.00
24031;BME280;12240;51.142;22.486;2023-08-31T05:47:15;62174.59;;;-142.46;100.00
24031;BME280;12240;51.142;22.486;2023-08-31T05:49:43;62174.59;;;-142.46;100.00
24031;BME280;12240;51.142;22.486;2023-08-31T05:52:11;62174.59;;;-142.46;100.00
24031;BME280;12240;51.142;22.486;2023-08-31T05:54:40;62174.59;;;-142.46;100.00
24031;BME280;12240;51.142;22.486;2023-08-31T05:57:08;62174.59;;;-142.46;100.00
24031;BME280;12240;51.142;22.486;2023-08-31T05:59:36;62174.59;;;-142.46;100.00
24031;BME280;12240;51.142;22.486;2023-08-31T06:02:05;62174.59;;;-142.46;100.00
24031;BME280;12240;51.142;22.486;2023-08-31T06:04:34;62174.59;;;-142.46;100.00
24031;BME280;12240;51.142;22.486;2023-08-31T06:07:03;62174.59;;;-142.46;100.00
24031;BME280;12240;51.142;22.486;2023-08-31T06:09:31;62174.59;;;-142.46;100.00
24031;BME280;12240;51.142;22.486;2023-08-31T06:12:00;62174.59;;;-142.46;100.00
24031;BME280;12240;51.142;22.486;2023-08-31T06:14:29;62174.59;;;-142.46;100.00
24031;BME280;12240;51.142;22.486;2023-08-31T06:16:58;62174.59;;;-142.46;100.00
24031;BME280;12240;51.142;22.486;2023-08-31T06:19:26;62174.59;;;-142.46;100.00
24031;BME280;12240;51.142;22.486;2023-08-31T06:21:55;62174.59;;;-142.46;100.00
24031;BME280;12240;51.142;22.486;2023-08-31T06:24:23;62174.59;;;-142.46;100.00
24031;BME280;12240;51.142;22.486;2023-08-31T06:26:52;62174.59;;;-142.46;100.00
24031;BME280;12240;51.142;22.486;2023-08-31T06:29:20;62174.59;;;-142.46;100.00
24031;BME280;12240;51.142;22.486;2023-08-31T06:31:48;62174.59;;;-142.46;100.00
24031;BME280;12240;51.142;22.486;2023-08-31T06:34:17;62174.59;;;-142.46;100.00
24031;BME280;12240;51.142;22.486;2023-08-31T06:36:46;62174.59;;;-142.46;100.00
24031;BME280;12240;51.142;22.486;2023-08-31T06:39:14;62174.59;;;-142.46;100.00
24031;BME280;12240;51.142;22.486;2023-08-31T06:41:44;62174.59;;;-142.46;100.00
24031;BME280;12240;51.142;22.486;2023-08-31T06:44:12;62174.59;;;-142.46;100.00
24031;BME280;12240;51.142;22.486;2023-08-31T06:46:40;62174.59;;;-142.46;100.00
24031;BME280;12240;51.142;22.486;2023-08-31T06:49:09;62174.59;;;-142.46;100.00
24031;BME280;12240;51.142;22.486;2023-08-31T06:51:38;62174.59;;;-142.46;100.00
24031;BME280;12240;51.142;22.486;2023-08-31T06:54:07;62174.59;;;-142.46;100.00
24031;BME280;12240;51.142;22.486;2023-08-31T06:56:36;62174.59;;;-142.46;100.00
24031;BME280;12240;51.142;22.486;2023-08-31T06:59:05;62174.59;;;-142.46;100.00
24031;BME280;12240;51.142;22.486;2023-08-31T07:01:35;62174.59;;;-142.46;100.00
24031;BME280;12240;51.142;22.486;2023-08-31T07:04:04;62174.59;;;-142.46;100.00
24031;BME280;12240;51.142;22.486;2023-08-31T07:06:35;62174.59;;;-142.46;100.00
24031;BME280;12240;51.142;22.486;2023-08-31T07:09:04;62174.59;;;-142.46;100.00
24031;BME280;12240;51.142;22.486;2023-08-31T07:11:37;62174.59;;;-142.46;100.00
24031;BME280;12240;51.142;22.486;2023-08-31T07:14:07;62174.59;;;-142.46;100.00
24031;BME280;12240;51.142;22.486;2023-08-31T07:16:35;62174.59;;;-142.46;100.00
24031;BME280;12240;51.142;22.486;2023-08-31T07:19:05;62174.59;;;-142.46;100.00
24031;BME280;12240;51.142;22.486;2023-08-31T07:21:34;62174.59;;;-142.46;100.00
24031;BME280;12240;51.142;22.486;2023-08-31T07:24:02;62174.59;;;-142.46;100.00
24031;BME280;12240;51.142;22.486;2023-08-31T07:26:30;62174.59;;;-142.46;100.00
24031;BME280;12240;51.142;22.486;2023-08-31T07:28:59;62174.59;;;-142.46;100.00
24031;BME280;12240;51.142;22.486;2023-08-31T07:31:31;62174.59;;;-142.46;100.00
24031;BME280;12240;51.142;22.486;2023-08-31T07:34:00;62174.59;;;-142.46;100.00
24031;BME280;12240;51.142;22.486;2023-08-31T07:36:29;62174.59;;;-142.46;100.00
24031;BME280;12240;51.142;22.486;2023-08-31T07:38:58;62174.59;;;-142.46;100.00
24031;BME280;12240;51.142;22.486;2023-08-31T07:41:26;62174.59;;;-142.46;100.00
24031;BME280;12240;51.142;22.486;2023-08-31T07:43:55;62174.59;;;-142.46;100.00
24031;BME280;12240;51.142;22.486;2023-08-31T07:46:32;62174.59;;;-142.46;100.00
24031;BME280;12240;51.142;22.486;2023-08-31T07:49:01;62174.59;;;-142.46;100.00
24031;BME280;12240;51.142;22.486;2023-08-31T07:51:30;62174.59;;;-142.46;100.00
24031;BME280;12240;51.142;22.486;2023-08-31T07:54:02;62174.59;;;-142.46;100.00
24031;BME280;12240;51.142;22.486;2023-08-31T07:56:31;62174.59;;;-142.46;100.00
24031;BME280;12240;51.142;22.486;2023-08-31T07:59:00;62174.59;;;-142.46;100.00
24031;BME280;12240;51.142;22.486;2023-08-31T08:01:29;62174.59;;;-142.46;100.00
24031;BME280;12240;51.142;22.486;2023-08-31T08:03:58;62174.59;;;-142.46;100.00
24031;BME280;12240;51.142;22.486;2023-08-31T08:06:26;62174.59;;;-142.46;100.00
24031;BME280;12240;51.142;22.486;2023-08-31T08:08:56;62174.59;;;-142.46;100.00
24031;BME280;12240;51.142;22.486;2023-08-31T08:11:24;62174.59;;;-142.46;100.00
24031;BME280;12240;51.142;22.486;2023-08-31T08:13:53;62174.59;;;-142.46;100.00
24031;BME280;12240;51.142;22.486;2023-08-31T08:16:22;62174.59;;;-142.46;100.00
24031;BME280;12240;51.142;22.486;2023-08-31T08:18:51;62174.59;;;-142.46;100.00
24031;BME280;12240;51.142;22.486;2023-08-31T08:21:21;62174.59;;;-142.46;100.00
24031;BME280;12240;51.142;22.486;2023-08-31T08:23:50;62174.59;;;-142.46;100.00
24031;BME280;12240;51.142;22.486;2023-08-31T08:26:20;62174.59;;;-142.46;100.00
24031;BME280;12240;51.142;22.486;2023-08-31T08:28:49;62174.59;;;-142.46;100.00
24031;BME280;12240;51.142;22.486;2023-08-31T08:31:17;62174.59;;;-142.46;100.00
24031;BME280;12240;51.142;22.486;2023-08-31T08:33:46;62174.59;;;-142.46;100.00
24031;BME280;12240;51.142;22.486;2023-08-31T08:36:14;62174.59;;;-142.46;100.00
24031;BME280;12240;51.142;22.486;2023-08-31T08:38:44;62174.59;;;-142.46;100.00
24031;BME280;12240;51.142;22.486;2023-08-31T08:41:14;62174.59;;;-142.46;100.00
24031;BME280;12240;51.142;22.486;2023-08-31T08:43:43;62174.59;;;-142.46;100.00
24031;BME280;12240;51.142;22.486;2023-08-31T08:46:15;62174.59;;;-142.46;100.00
24031;BME280;12240;51.142;22.486;2023-08-31T08:48:45;62174.59;;;-142.46;100.00
24031;BME280;12240;51.142;22.486;2023-08-31T08:51:15;62174.59;;;-142.46;100.00
24031;BME280;12240;51.142;22.486;2023-08-31T08:53:44;62174.59;;;-142.46;100.00
24031;BME280;12240;51.142;22.486;2023-08-31T08:56:13;62174.59;;;-142.46;100.00
24031;BME280;12240;51.142;22.486;2023-08-31T08:58:41;62174.59;;;-142.46;100.00
24031;BME280;12240;51.142;22.486;2023-08-31T09:01:10;62174.59;;;-142.46;100.00
24031;BME280;12240;51.142;22.486;2023-08-31T09:03:39;62174.59;;;-142.46;100.00
24031;BME280;12240;51.142;22.486;2023-08-31T09:06:08;62174.59;;;-142.46;100.00
24031;BME280;12240;51.142;22.486;2023-08-31T09:08:41;62174.59;;;-142.46;100.00
24031;BME280;12240;51.142;22.486;2023-08-31T09:11:20;62174.59;;;-142.46;100.00
24031;BME280;12240;51.142;22.486;2023-08-31T09:13:51;62174.59;;;-142.46;100.00
24031;BME280;12240;51.142;22.486;2023-08-31T09:16:28;62174.59;;;-142.46;100.00
24031;BME280;12240;51.142;22.486;2023-08-31T09:18:58;62174.59;;;-142.46;100.00
24031;BME280;12240;51.142;22.486;2023-08-31T09:21:37;62174.59;;;-142.46;100.00
24031;BME280;12240;51.142;22.486;2023-08-31T09:24:09;62174.59;;;-142.46;100.00
24031;BME280;12240;51.142;22.486;2023-08-31T09:26:44;62174.59;;;-142.46;100.00
24031;BME280;12240;51.142;22.486;2023-08-31T09:29:15;62174.59;;;-142.46;100.00
24031;BME280;12240;51.142;22.486;2023-08-31T09:31:45;62174.59;;;-142.46;100.00
24031;BME280;12240;51.142;22.486;2023-08-31T09:34:16;62174.59;;;-142.46;100.00
24031;BME280;12240;51.142;22.486;2023-08-31T09:36:46;62174.59;;;-142.46;100.00
24031;BME280;12240;51.142;22.486;2023-08-31T09:39:17;98683.59;;;21.40;100.00
24031;BME280;12240;51.142;22.486;2023-08-31T09:41:54;98693.94;;;21.43;100.00
24031;BME280;12240;51.142;22.486;2023-08-31T09:44:22;98695.09;;;21.70;100.00
24031;BME280;12240;51.142;22.486;2023-08-31T09:46:52;98690.47;;;21.71;100.00
24031;BME280;12240;51.142;22.486;2023-08-31T09:49:22;98679.94;;;21.98;100.00
24031;BME280;12240;51.142;22.486;2023-08-31T09:51:52;98694.94;;;22.17;100.00
24031;BME280;12240;51.142;22.486;2023-08-31T09:54:21;98685.81;;;21.94;100.00
24031;BME280;12240;51.142;22.486;2023-08-31T09:56:56;98683.59;;;22.20;100.00
24031;BME280;12240;51.142;22.486;2023-08-31T09:59:27;98674.97;;;21.94;100.00
24031;BME280;12240;51.142;22.486;2023-08-31T10:01:56;98665.56;;;22.14;100.00
24031;BME280;12240;51.142;22.486;2023-08-31T10:04:25;98674.53;;;22.14;100.00
24031;BME280;12240;51.142;22.486;2023-08-31T10:06:54;98696.34;;;21.91;100.00
24031;BME280;12240;51.142;22.486;2023-08-31T10:09:24;98701.13;;;21.38;100.00
24031;BME280;12240;51.142;22.486;2023-08-31T10:11:53;98703.28;;;21.13;100.00
24031;BME280;12240;51.142;22.486;2023-08-31T10:14:22;98717.28;;;21.21;100.00
24031;BME280;12240;51.142;22.486;2023-08-31T10:16:51;98723.50;;;20.99;100.00
24031;BME280;12240;51.142;22.486;2023-08-31T10:19:20;98723.66;;;21.15;100.00
24031;BME280;12240;51.142;22.486;2023-08-31T10:21:49;98730.59;;;21.11;100.00
24031;BME280;12240;51.142;22.486;2023-08-31T10:24:18;98730.09;;;21.26;100.00
24031;BME280;12240;51.142;22.486;2023-08-31T10:27:19;98728.69;;;21.35;100.00
24031;BME280;12240;51.142;22.486;2023-08-31T10:29:48;98728.91;;;21.56;100.00
24031;BME280;12240;51.142;22.486;2023-08-31T10:32:18;98721.25;;;21.53;100.00
24031;BME280;12240;51.142;22.486;2023-08-31T10:35:10;98701.19;;;21.66;100.00
24031;BME280;12240;51.142;22.486;2023-08-31T10:37:40;98705.97;;;21.98;100.00
24031;BME280;12240;51.142;22.486;2023-08-31T10:40:12;98715.53;;;21.89;100.00
24031;BME280;12240;51.142;22.486;2023-08-31T10:42:48;98707.69;;;21.65;100.00
24031;BME280;12240;51.142;22.486;2023-08-31T10:45:46;98724.44;;;21.50;100.00
24031;BME280;12240;51.142;22.486;2023-08-31T10:48:14;98716.91;;;21.52;100.00
24031;BME280;12240;51.142;22.486;2023-08-31T10:50:46;98717.25;;;21.56;100.00
24031;BME280;12240;51.142;22.486;2023-08-31T10:53:15;98727.81;;;21.69;100.00
24031;BME280;12240;51.142;22.486;2023-08-31T10:55:53;98715.56;;;22.18;100.00
24031;BME280;12240;51.142;22.486;2023-08-31T10:58:32;98724.88;;;22.22;100.00
24031;BME280;12240;51.142;22.486;2023-08-31T11:01:02;98720.41;;;22.16;100.00
24031;BME280;12240;51.142;22.486;2023-08-31T11:03:31;98723.72;;;22.34;100.00
24031;BME280;12240;51.142;22.486;2023-08-31T11:06:00;98727.09;;;22.86;100.00
24031;BME280;12240;51.142;22.486;2023-08-31T11:08:29;98705.31;;;22.97;100.00
24031;BME280;12240;51.142;22.486;2023-08-31T11:10:58;98710.00;;;22.69;100.00
24031;BME280;12240;51.142;22.486;2023-08-31T11:13:26;98710.69;;;22.92;100.00
24031;BME280;12240;51.142;22.486;2023-08-31T11:15:55;98705.63;;;23.18;100.00
24031;BME280;12240;51.142;22.486;2023-08-31T11:18:24;98731.78;;;23.24;100.00
24031;BME280;12240;51.142;22.486;2023-08-31T11:20:53;98745.31;;;23.35;100.00
24031;BME280;12240;51.142;22.486;2023-08-31T11:23:25;98737.50;;;22.44;100.00
24031;BME280;12240;51.142;22.486;2023-08-31T11:25:54;98751.28;;;22.71;100.00
24031;BME280;12240;51.142;22.486;2023-08-31T11:28:23;98759.03;;;23.12;100.00
24031;BME280;12240;51.142;22.486;2023-08-31T11:30:52;98755.88;;;22.54;100.00
24031;BME280;12240;51.142;22.486;2023-08-31T11:33:20;98773.94;;;22.20;100.00
24031;BME280;12240;51.142;22.486;2023-08-31T11:35:50;98778.63;;;22.25;100.00
24031;BME280;12240;51.142;22.486;2023-08-31T11:38:20;98775.19;;;22.57;100.00
24031;BME280;12240;51.142;22.486;2023-08-31T11:40:48;98778.88;;;22.96;100.00
24031;BME280;12240;51.142;22.486;2023-08-31T11:43:20;98775.97;;;22.86;100.00
24031;BME280;12240;51.142;22.486;2023-08-31T11:45:49;98780.25;;;23.15;100.00
24031;BME280;12240;51.142;22.486;2023-08-31T11:48:18;98762.41;;;22.86;100.00
24031;BME280;12240;51.142;22.486;2023-08-31T11:50:46;98760.19;;;22.83;100.00
24031;BME280;12240;51.142;22.486;2023-08-31T11:53:15;98767.28;;;22.84;100.00
24031;BME280;12240;51.142;22.486;2023-08-31T11:55:51;98772.97;;;22.99;100.00
24031;BME280;12240;51.142;22.486;2023-08-31T11:58:21;98750.16;;;23.00;100.00
24031;BME280;12240;51.142;22.486;2023-08-31T12:01:00;98750.88;;;22.79;100.00
24031;BME280;12240;51.142;22.486;2023-08-31T12:03:42;98753.38;;;22.97;100.00
24031;BME280;12240;51.142;22.486;2023-08-31T12:06:18;98754.63;;;23.06;100.00
24031;BME280;12240;51.142;22.486;2023-08-31T12:08:47;98756.09;;;23.68;100.00
24031;BME280;12240;51.142;22.486;2023-08-31T12:11:20;98771.59;;;24.06;100.00
24031;BME280;12240;51.142;22.486;2023-08-31T12:13:50;98751.34;;;24.18;100.00
24031;BME280;12240;51.142;22.486;2023-08-31T12:16:19;98749.34;;;23.92;100.00
24031;BME280;12240;51.142;22.486;2023-08-31T12:18:47;98747.06;;;23.63;100.00
24031;BME280;12240;51.142;22.486;2023-08-31T12:21:19;98765.53;;;23.99;100.00
24031;BME280;12240;51.142;22.486;2023-08-31T12:23:49;98761.25;;;24.08;100.00
24031;BME280;12240;51.142;22.486;2023-08-31T12:26:17;98754.78;;;23.92;100.00
24031;BME280;12240;51.142;22.486;2023-08-31T12:28:45;98761.72;;;23.62;100.00
24031;BME280;12240;51.142;22.486;2023-08-31T12:31:14;98764.47;;;23.12;100.00
24031;BME280;12240;51.142;22.486;2023-08-31T12:33:43;98786.69;;;23.09;100.00
24031;BME280;12240;51.142;22.486;2023-08-31T12:36:11;98786.44;;;22.94;100.00
24031;BME280;12240;51.142;22.486;2023-08-31T12:38:40;98793.09;;;22.86;100.00
24031;BME280;12240;51.142;22.486;2023-08-31T12:41:08;98800.38;;;23.31;100.00
24031;BME280;12240;51.142;22.486;2023-08-31T12:43:37;98790.00;;;23.28;100.00
24031;BME280;12240;51.142;22.486;2023-08-31T12:46:07;98783.75;;;23.82;100.00